createdAt,value
2018-10-04T00:00:43.017Z,100533.90
2018-10-04T00:03:11.515Z,100526.21
2018-10-04T00:05:40.049Z,100526.21
2018-10-04T00:08:08.554Z,100531.47
2018-10-04T00:10:37.120Z,100532.58
2018-10-04T00:13:05.686Z,100529.59
2018-10-04T00:15:34.229Z,100535.89
2018-10-04T00:18:02.916Z,100541.77
2018-10-04T00:20:31.457Z,100549.52
2018-10-04T00:23:00.029Z,100551.43
2018-10-04T00:25:28.668Z,100549.81
2018-10-04T00:27:57.244Z,100555.05
2018-10-04T00:30:25.773Z,100547.77
2018-10-04T00:32:54.277Z,100552.94
2018-10-04T00:35:22.811Z,100544.09
2018-10-04T00:37:51.321Z,100540.60
2018-10-04T00:40:19.860Z,100540.62
2018-10-04T00:42:48.371Z,100530.80
2018-10-04T00:45:16.941Z,100537.50
2018-10-04T00:47:45.448Z,100535.23
2018-10-04T00:50:14.092Z,100534.54
2018-10-04T00:52:42.593Z,100528.52
2018-10-04T00:55:11.127Z,100525.30
2018-10-04T00:57:39.629Z,100529.18
2018-10-04T01:00:08.160Z,100526.91
2018-10-04T01:02:36.649Z,100522.02
2018-10-04T01:05:05.217Z,100516.77
2018-10-04T01:07:34.235Z,100518.89
2018-10-04T01:10:02.757Z,100512.08
2018-10-04T01:12:31.297Z,100515.78
2018-10-04T01:14:59.797Z,100515.76
2018-10-04T01:17:28.327Z,100504.48
2018-10-04T01:19:56.829Z,100507.09
2018-10-04T01:22:31.524Z,100507.86
2018-10-04T01:25:00.113Z,100519.64
2018-10-04T01:27:28.693Z,100519.94
2018-10-04T01:29:57.247Z,100519.52
2018-10-04T01:32:25.945Z,100515.61
2018-10-04T01:34:54.503Z,100512.92
2018-10-04T01:37:23.135Z,100506.34
2018-10-04T01:39:51.677Z,100507.58
2018-10-04T01:42:20.277Z,100506.06
2018-10-04T01:44:48.825Z,100507.58
2018-10-04T01:47:17.404Z,100511.95
2018-10-04T01:49:45.948Z,100513.39
2018-10-04T01:52:14.528Z,100517.77
2018-10-04T01:54:43.085Z,100514.31
2018-10-04T01:57:11.669Z,100521.15
2018-10-04T01:59:40.228Z,100515.19
2018-10-04T02:02:08.808Z,100511.89
2018-10-04T02:04:37.353Z,100512.83
2018-10-04T02:07:05.933Z,100506.66
2018-10-04T02:09:34.480Z,100509.12
2018-10-04T02:12:03.096Z,100509.05
2018-10-04T02:14:31.625Z,100502.94
2018-10-04T02:17:00.207Z,100510.75
2018-10-04T02:19:28.736Z,100508.52
2018-10-04T02:21:57.321Z,100517.69
2018-10-04T02:24:25.872Z,100516.03
2018-10-04T02:26:54.453Z,100517.33
2018-10-04T02:29:23.000Z,100516.78
2018-10-04T02:31:51.569Z,100513.48
2018-10-04T02:34:20.113Z,100515.25
2018-10-04T02:36:48.690Z,100507.13
2018-10-04T02:39:17.240Z,100514.17
2018-10-04T02:41:45.808Z,100511.86
2018-10-04T02:44:14.343Z,100511.50
2018-10-04T02:46:42.917Z,100514.92
2018-10-04T02:49:11.782Z,100514.20
2018-10-04T02:51:40.472Z,100513.35
2018-10-04T02:54:11.369Z,100509.30
2018-10-04T02:56:45.165Z,100516.97
2018-10-04T02:59:13.713Z,100513.39
2018-10-04T03:01:42.249Z,100504.25
2018-10-04T03:04:10.828Z,100506.91
2018-10-04T03:06:39.385Z,100502.91
2018-10-04T03:09:07.992Z,100498.28
2018-10-04T03:11:36.550Z,100498.65
2018-10-04T03:14:05.148Z,100496.38
2018-10-04T03:16:33.709Z,100497.59
2018-10-04T03:19:02.305Z,100500.77
2018-10-04T03:21:30.874Z,100507.40
2018-10-04T03:23:59.457Z,100501.45
2018-10-04T03:26:28.014Z,100500.45
2018-10-04T03:28:56.597Z,100498.00
2018-10-04T03:31:25.171Z,100499.34
2018-10-04T03:33:53.749Z,100504.52
2018-10-04T03:36:22.298Z,100505.88
2018-10-04T03:38:50.903Z,100500.43
2018-10-04T03:41:19.444Z,100499.02
2018-10-04T03:43:48.196Z,100493.30
2018-10-04T03:46:17.056Z,100498.84
2018-10-04T03:48:45.627Z,100497.83
2018-10-04T03:51:14.189Z,100493.76
2018-10-04T03:53:42.780Z,100500.59
2018-10-04T03:56:11.336Z,100491.43
2018-10-04T03:58:39.904Z,100496.23
2018-10-04T04:01:08.741Z,100496.16
2018-10-04T04:03:37.337Z,100496.50
2018-10-04T04:06:05.909Z,100493.08
2018-10-04T04:08:35.065Z,100490.92
2018-10-04T04:11:03.612Z,100488.35
2018-10-04T04:13:32.209Z,100490.12
2018-10-04T04:16:00.764Z,100481.11
2018-10-04T04:18:29.340Z,100477.69
2018-10-04T04:20:57.908Z,100473.56
2018-10-04T04:23:26.516Z,100474.72
2018-10-04T04:25:55.072Z,100475.11
2018-10-04T04:28:23.662Z,100475.38
2018-10-04T04:30:52.285Z,100473.72
2018-10-04T04:33:20.825Z,100467.44
2018-10-04T04:35:49.383Z,100466.34
2018-10-04T04:38:17.953Z,100464.02
2018-10-04T04:40:46.518Z,100461.09
2018-10-04T04:43:15.145Z,100463.20
2018-10-04T04:45:43.719Z,100458.39
2018-10-04T04:48:12.281Z,100461.95
2018-10-04T04:50:40.873Z,100458.31
2018-10-04T04:53:34.839Z,100459.03
2018-10-04T04:56:03.385Z,100466.86
2018-10-04T04:58:31.949Z,100462.89
2018-10-04T05:01:00.724Z,100469.56
2018-10-04T05:03:29.285Z,100463.72
2018-10-04T05:05:57.944Z,100475.03
2018-10-04T05:08:26.492Z,100472.51
2018-10-04T05:10:55.076Z,100478.08
2018-10-04T05:13:23.637Z,100478.95
2018-10-04T05:15:52.259Z,100478.75
2018-10-04T05:18:20.823Z,100483.03
2018-10-04T05:20:49.488Z,100483.48
2018-10-04T05:23:18.132Z,100479.86
2018-10-04T05:25:46.724Z,100472.55
2018-10-04T05:28:15.289Z,100470.95
2018-10-04T05:30:43.889Z,100472.65
2018-10-04T05:33:12.445Z,100476.12
2018-10-04T05:35:41.822Z,100467.37
2018-10-04T05:38:10.377Z,100463.91
2018-10-04T05:40:38.984Z,100464.00
2018-10-04T05:43:07.847Z,100463.03
2018-10-04T05:45:36.437Z,100469.59
2018-10-04T05:48:05.008Z,100456.64
2018-10-04T05:50:33.615Z,100456.22
2018-10-04T05:53:02.296Z,100458.67
2018-10-04T05:55:30.834Z,100458.20
2018-10-04T05:57:59.482Z,100453.14
2018-10-04T06:00:36.177Z,100452.59
2018-10-04T06:03:05.251Z,100451.41
2018-10-04T06:05:33.871Z,100455.09
2018-10-04T06:08:02.766Z,100467.44
2018-10-04T06:10:32.004Z,100460.25
2018-10-04T06:13:00.565Z,100457.28
2018-10-04T06:15:29.249Z,100463.92
2018-10-04T06:17:57.757Z,100462.68
2018-10-04T06:20:35.029Z,100462.31
2018-10-04T06:23:03.637Z,100460.68
2018-10-04T06:25:32.221Z,100458.23
2018-10-04T06:28:00.950Z,100464.73
2018-10-04T06:30:30.228Z,100467.45
2018-10-04T06:32:58.784Z,100469.52
2018-10-04T06:35:27.425Z,100472.93
2018-10-04T06:37:55.973Z,100472.05
2018-10-04T06:40:27.965Z,100469.02
2018-10-04T06:42:56.641Z,100470.53
2018-10-04T06:45:25.376Z,100468.25
2018-10-04T06:47:54.005Z,100470.91
2018-10-04T06:50:22.821Z,100469.19
2018-10-04T06:52:51.426Z,100472.39
2018-10-04T06:55:20.190Z,100474.48
2018-10-04T06:57:48.798Z,100473.39
2018-10-04T07:00:17.693Z,100479.09
2018-10-04T07:02:48.975Z,100482.86
2018-10-04T07:05:17.740Z,100484.95
2018-10-04T07:07:46.281Z,100495.95
2018-10-04T07:10:15.425Z,100495.11
2018-10-04T07:12:44.134Z,100497.08
2018-10-04T07:15:13.164Z,100492.81
2018-10-04T07:17:41.745Z,100486.92
2018-10-04T07:20:17.042Z,100494.55
2018-10-04T07:22:45.612Z,100489.95
2018-10-04T07:25:14.204Z,100494.30
2018-10-04T07:27:42.793Z,100493.95
2018-10-04T07:30:11.390Z,100492.74
2018-10-04T07:32:39.982Z,100497.08
2018-10-04T07:35:08.557Z,100495.08
2018-10-04T07:37:37.225Z,100494.80
2018-10-04T07:40:06.221Z,100495.73
2018-10-04T07:42:35.053Z,100492.13
2018-10-04T07:45:03.576Z,100501.40
2018-10-04T07:47:32.148Z,100501.19
2018-10-04T07:50:00.746Z,100502.45
2018-10-04T07:52:29.294Z,100504.01
2018-10-04T07:54:57.857Z,100510.19
2018-10-04T07:57:26.478Z,100516.84
2018-10-04T07:59:55.036Z,100514.05
2018-10-04T08:02:23.613Z,100514.61
2018-10-04T08:04:52.160Z,100517.53
2018-10-04T08:07:20.736Z,100518.00
2018-10-04T08:09:49.308Z,100512.02
2018-10-04T08:12:17.913Z,100508.56
2018-10-04T08:14:46.765Z,100507.27
2018-10-04T08:17:16.024Z,100508.19
2018-10-04T08:19:44.971Z,100510.09
2018-10-04T08:22:13.998Z,100506.28
2018-10-04T08:24:42.839Z,100510.77
2018-10-04T08:27:11.425Z,100505.63
2018-10-04T08:29:40.073Z,100506.95
2018-10-04T08:32:08.760Z,100497.45
2018-10-04T08:34:37.544Z,100497.97
2018-10-04T08:37:06.343Z,100500.27
2018-10-04T08:39:34.889Z,100493.76
2018-10-04T08:42:03.597Z,100495.11
2018-10-04T08:44:32.141Z,100498.06
2018-10-04T08:47:00.741Z,100493.02
2018-10-04T08:49:29.319Z,100486.30
2018-10-04T08:51:57.920Z,100487.58
2018-10-04T08:54:33.291Z,100491.00
2018-10-04T08:57:02.417Z,100489.17
2018-10-04T08:59:31.101Z,100488.64
2018-10-04T09:01:59.772Z,100483.55
2018-10-04T09:04:28.412Z,100483.55
2018-10-04T09:06:57.005Z,100479.66
2018-10-04T09:09:25.592Z,100477.47
2018-10-04T09:11:54.643Z,100479.06
2018-10-04T09:14:23.288Z,100475.20
2018-10-04T09:16:51.841Z,100470.38
2018-10-04T09:19:20.429Z,100474.66
2018-10-04T09:21:49.345Z,100470.47
2018-10-04T09:24:17.917Z,100475.07
2018-10-04T09:26:46.485Z,100475.09
2018-10-04T09:29:15.137Z,100480.97
2018-10-04T09:31:46.040Z,100474.69
2018-10-04T09:34:14.642Z,100469.89
2018-10-04T09:36:43.228Z,100465.38
2018-10-04T09:39:12.743Z,100471.30
2018-10-04T09:41:41.365Z,100466.98
2018-10-04T09:44:10.693Z,100465.95
2018-10-04T09:46:39.931Z,100466.97
2018-10-04T09:49:08.536Z,100464.55
2018-10-04T09:51:42.777Z,100458.20
2018-10-04T09:54:15.807Z,100459.44
2018-10-04T09:56:47.227Z,100452.31
2018-10-04T09:59:15.944Z,100458.23
2018-10-04T10:01:49.961Z,100460.87
2018-10-04T10:04:18.844Z,100453.55
2018-10-04T10:06:47.397Z,100450.48
2018-10-04T10:09:16.252Z,100453.99
2018-10-04T10:11:44.887Z,100444.44
2018-10-04T10:14:13.757Z,100446.48
2018-10-04T10:16:44.535Z,100446.08
2018-10-04T10:19:13.639Z,100438.98
2018-10-04T10:21:44.745Z,100431.59
2018-10-04T10:24:16.272Z,100435.61
2018-10-04T10:26:47.033Z,100429.52
2018-10-04T10:29:15.623Z,100425.90
2018-10-04T10:31:45.241Z,100431.70
2018-10-04T10:34:16.052Z,100422.06
2018-10-04T10:36:46.503Z,100424.63
2018-10-04T10:39:15.155Z,100415.90
2018-10-04T10:41:45.012Z,100418.02
2018-10-04T10:44:14.406Z,100425.77
2018-10-04T10:46:42.980Z,100419.13
2018-10-04T10:49:13.021Z,100421.74
2018-10-04T10:51:42.555Z,100419.11
2018-10-04T10:54:12.498Z,100414.97
2018-10-04T10:56:52.319Z,100411.29
2018-10-04T10:59:21.424Z,100407.52
2018-10-04T11:01:49.981Z,100405.12
2018-10-04T11:04:18.553Z,100404.39
2018-10-04T11:06:47.104Z,100402.67
2018-10-04T11:09:16.934Z,100396.64
2018-10-04T11:11:48.577Z,100395.42
2018-10-04T11:14:17.268Z,100389.57
2018-10-04T11:16:45.829Z,100394.63
2018-10-04T11:19:15.377Z,100390.81
2018-10-04T11:21:43.972Z,100384.84
2018-10-04T11:24:12.611Z,100386.48
2018-10-04T11:26:41.533Z,100378.80
2018-10-04T11:29:10.340Z,100377.06
2018-10-04T11:31:39.652Z,100374.67
2018-10-04T11:34:08.241Z,100371.04
2018-10-04T11:36:37.868Z,100368.89
2018-10-04T11:39:10.129Z,100363.34
2018-10-04T11:41:40.291Z,100356.58
2018-10-04T11:44:16.801Z,100351.86
2018-10-04T11:46:47.049Z,100346.98
2018-10-04T11:49:18.248Z,100347.37
2018-10-04T11:51:46.844Z,100338.36
2018-10-04T11:54:15.438Z,100339.42
2018-10-04T11:56:44.121Z,100343.78
2018-10-04T11:59:12.961Z,100343.64
2018-10-04T12:01:41.751Z,100341.61
2018-10-04T12:04:10.265Z,100341.50
2018-10-04T12:06:39.441Z,100330.74
2018-10-04T12:09:08.884Z,100321.89
2018-10-04T12:11:40.618Z,100325.55
2018-10-04T12:14:09.487Z,100318.30
2018-10-04T12:16:38.196Z,100322.39
2018-10-04T12:19:07.885Z,100323.89
2018-10-04T12:21:37.322Z,100319.69
2018-10-04T12:24:17.466Z,100315.90
2018-10-04T12:26:57.072Z,100311.92
2018-10-04T12:29:42.955Z,100303.45
2018-10-04T12:32:18.002Z,100304.18
2018-10-04T12:34:47.048Z,100306.19
2018-10-04T12:37:15.673Z,100303.02
2018-10-04T12:39:44.317Z,100300.77
2018-10-04T12:42:12.915Z,100305.30
2018-10-04T12:44:41.495Z,100296.73
2018-10-04T12:47:10.838Z,100299.61
2018-10-04T12:49:39.397Z,100292.14
2018-10-04T12:52:08.009Z,100288.44
2018-10-04T12:54:36.758Z,100284.45
2018-10-04T12:57:05.373Z,100285.58
2018-10-04T12:59:33.921Z,100283.20
2018-10-04T13:02:02.496Z,100276.81
2018-10-04T13:04:31.052Z,100276.56
2018-10-04T13:07:00.111Z,100273.19
2018-10-04T13:09:28.497Z,100267.98
2018-10-04T13:11:57.117Z,100273.56
2018-10-04T13:14:25.689Z,100259.52
2018-10-04T13:16:54.648Z,100256.88
2018-10-04T13:19:26.234Z,100251.91
2018-10-04T13:21:54.869Z,100249.95
2018-10-04T13:24:23.684Z,100249.98
2018-10-04T13:26:52.465Z,100249.86
2018-10-04T13:29:21.548Z,100243.45
2018-10-04T13:31:54.375Z,100239.47
2018-10-04T13:34:23.039Z,100241.23
2018-10-04T13:36:51.621Z,100234.36
2018-10-04T13:39:20.539Z,100236.14
2018-10-04T13:41:49.277Z,100227.45
2018-10-04T13:44:20.744Z,100229.86
2018-10-04T13:46:49.324Z,100224.78
2018-10-04T13:49:17.928Z,100222.24
2018-10-04T13:51:46.600Z,100220.52
2018-10-04T13:54:15.149Z,100217.52
2018-10-04T13:56:44.892Z,100209.84
2018-10-04T13:59:13.523Z,100209.34
2018-10-04T14:01:44.564Z,100207.34
2018-10-04T14:04:13.528Z,100203.58
2018-10-04T14:06:42.225Z,100204.97
2018-10-04T14:09:10.904Z,100203.47
2018-10-04T14:11:39.485Z,100201.19
2018-10-04T14:14:08.132Z,100193.91
2018-10-04T14:16:36.889Z,100188.86
2018-10-04T14:19:06.446Z,100191.60
2018-10-04T14:21:35.165Z,100186.50
2018-10-04T14:24:04.047Z,100188.30
2018-10-04T14:26:32.649Z,100182.11
2018-10-04T14:29:01.228Z,100158.58
2018-10-04T14:31:29.776Z,100180.38
2018-10-04T14:33:58.389Z,100179.45
2018-10-04T14:36:26.969Z,100181.58
2018-10-04T14:38:55.914Z,100178.66
2018-10-04T14:41:24.502Z,100181.33
2018-10-04T14:43:53.082Z,100177.27
2018-10-04T14:46:21.805Z,100174.28
2018-10-04T14:48:51.831Z,100177.02
2018-10-04T14:51:20.645Z,100176.00
2018-10-04T14:53:49.277Z,100176.58
2018-10-04T14:56:17.835Z,100168.69
2018-10-04T14:58:46.419Z,100159.66
2018-10-04T15:01:14.991Z,100165.00
2018-10-04T15:03:43.653Z,100167.00
2018-10-04T15:06:12.250Z,100169.52
2018-10-04T15:08:40.852Z,100169.80
2018-10-04T15:11:09.660Z,100169.97
2018-10-04T15:13:38.775Z,100166.05
2018-10-04T15:16:09.313Z,100156.53
2018-10-04T15:18:39.154Z,100160.95
2018-10-04T15:21:08.340Z,100157.20
2018-10-04T15:23:38.894Z,100159.42
2018-10-04T15:26:08.572Z,100159.63
2018-10-04T15:28:37.280Z,100150.28
2018-10-04T15:31:05.962Z,100152.74
2018-10-04T15:33:34.560Z,100156.11
2018-10-04T15:36:03.853Z,100151.46
2018-10-04T15:38:33.276Z,100145.95
2018-10-04T15:41:02.360Z,100144.27
2018-10-04T15:43:32.126Z,100136.58
2018-10-04T15:46:00.811Z,100138.95
2018-10-04T15:48:29.929Z,100138.78
2018-10-04T15:50:58.514Z,100144.67
2018-10-04T15:53:27.386Z,100143.48
2018-10-04T15:55:55.933Z,100138.39
2018-10-04T15:58:24.808Z,100141.02
2018-10-04T16:00:53.361Z,100139.61
2018-10-04T16:03:22.721Z,100135.41
2018-10-04T16:05:52.139Z,100132.01
2018-10-04T16:08:20.713Z,100127.88
2018-10-04T16:10:50.143Z,100122.02
2018-10-04T16:13:19.646Z,100120.91
2018-10-04T16:15:51.549Z,100121.44
2018-10-04T16:18:20.156Z,100131.72
2018-10-04T16:20:55.568Z,100126.70
2018-10-04T16:23:24.864Z,100127.56
2018-10-04T16:25:53.497Z,100127.27
2018-10-04T16:28:22.692Z,100121.38
2018-10-04T16:30:52.262Z,100122.45
2018-10-04T16:33:21.841Z,100122.36
2018-10-04T16:35:50.413Z,100122.90
2018-10-04T16:38:23.712Z,100119.52
2018-10-04T16:40:53.113Z,100117.45
2018-10-04T16:43:23.487Z,100119.13
2018-10-04T16:45:52.606Z,100112.64
2018-10-04T16:48:32.198Z,100109.13
2018-10-04T16:51:01.627Z,100108.06
2018-10-04T16:53:31.540Z,100112.52
2018-10-04T16:56:01.007Z,100105.63
2018-10-04T16:58:29.739Z,100105.72
2018-10-04T17:00:58.983Z,100099.05
2018-10-04T17:03:28.165Z,100101.59
2018-10-04T17:05:57.395Z,100099.66
2018-10-04T17:08:29.570Z,100096.78
2018-10-04T17:11:03.109Z,100096.83
2018-10-04T17:13:35.236Z,100097.95
2018-10-04T17:16:03.981Z,100101.64
2018-10-04T17:18:43.861Z,100101.14
2018-10-04T17:21:12.641Z,100099.89
2018-10-04T17:23:41.444Z,100102.30
2018-10-04T17:26:10.033Z,100103.62
2018-10-04T17:28:38.605Z,100099.44
2018-10-04T17:31:07.214Z,100097.16
2018-10-04T17:33:35.756Z,100093.30
2018-10-04T17:36:04.341Z,100098.13
2018-10-04T17:38:37.865Z,100099.45
2018-10-04T17:41:08.552Z,100101.47
2018-10-04T17:43:37.105Z,100098.63
2018-10-04T17:46:08.926Z,100091.22
2018-10-04T17:48:37.550Z,100090.60
2018-10-04T17:51:06.145Z,100096.27
2018-10-04T17:53:34.765Z,100094.44
2018-10-04T17:56:08.384Z,100095.93
2018-10-04T17:58:41.568Z,100107.34
2018-10-04T18:01:16.566Z,100099.53
2018-10-04T18:03:50.216Z,100101.95
2018-10-04T18:06:19.285Z,100109.22
2018-10-04T18:08:47.840Z,100113.97
2018-10-04T18:11:18.145Z,100118.02
2018-10-04T18:13:47.888Z,100111.00
2018-10-04T18:16:16.596Z,100107.27
2018-10-04T18:18:45.194Z,100111.05
2018-10-04T18:21:13.845Z,100108.36
2018-10-04T18:23:42.433Z,100109.88
2018-10-04T18:26:11.060Z,100104.78
2018-10-04T18:28:39.658Z,100110.12
2018-10-04T18:31:08.258Z,100111.59
2018-10-04T18:33:36.844Z,100106.02
2018-10-04T18:36:05.393Z,100112.73
2018-10-04T18:38:34.142Z,100112.27
2018-10-04T18:41:02.852Z,100111.92
2018-10-04T18:43:33.073Z,100090.36
2018-10-04T18:46:01.698Z,100123.44
2018-10-04T18:48:30.277Z,100118.02
2018-10-04T18:51:00.306Z,100115.23
2018-10-04T18:53:31.517Z,100118.02
2018-10-04T18:56:00.338Z,100115.39
2018-10-04T18:58:29.321Z,100116.77
2018-10-04T19:00:57.884Z,100122.94
2018-10-04T19:03:26.488Z,100122.41
2018-10-04T19:05:55.100Z,100119.07
2018-10-04T19:08:23.683Z,100116.97
2018-10-04T19:10:52.269Z,100116.52
2018-10-04T19:13:20.873Z,100118.67
2018-10-04T19:15:49.773Z,100111.96
2018-10-04T19:18:18.396Z,100115.35
2018-10-04T19:20:47.237Z,100110.98
2018-10-04T19:23:15.833Z,100115.39
2018-10-04T19:25:44.376Z,100113.30
2018-10-04T19:28:15.969Z,100120.26
2018-10-04T19:30:44.580Z,100113.89
2018-10-04T19:33:13.158Z,100113.38
2018-10-04T19:35:47.559Z,100113.46
2018-10-04T19:38:17.124Z,100116.77
2018-10-04T19:40:46.043Z,100115.30
2018-10-04T19:43:20.230Z,100112.53
2018-10-04T19:45:53.855Z,100117.94
2018-10-04T19:48:33.651Z,100115.78
2018-10-04T19:51:02.462Z,100117.15
2018-10-04T19:53:31.127Z,100118.89
2018-10-04T19:55:59.676Z,100117.44
2018-10-04T19:58:28.326Z,100110.63
2018-10-04T20:00:58.550Z,100109.61
2018-10-04T20:03:27.300Z,100105.55
2018-10-04T20:05:57.579Z,100110.70
2018-10-04T20:08:29.474Z,100108.48
2018-10-04T20:10:58.728Z,100111.54
2018-10-04T20:13:28.626Z,100109.72
2018-10-04T20:16:06.387Z,100116.52
2018-10-04T20:18:42.557Z,100115.44
2018-10-04T20:21:17.946Z,100122.44
2018-10-04T20:23:51.307Z,100118.91
2018-10-04T20:26:23.132Z,100118.58
2018-10-04T20:28:56.460Z,100113.39
2018-10-04T20:31:29.695Z,100128.03
2018-10-04T20:34:07.824Z,100126.70
2018-10-04T20:36:43.123Z,100130.06
2018-10-04T20:39:15.572Z,100131.83
2018-10-04T20:41:49.682Z,100130.73
2018-10-04T20:44:22.826Z,100135.75
2018-10-04T20:46:55.446Z,100131.38
2018-10-04T20:49:29.147Z,100132.67
2018-10-04T20:52:07.880Z,100130.65
2018-10-04T20:54:43.372Z,100126.80
2018-10-04T20:57:16.715Z,100128.90
2018-10-04T20:59:51.299Z,100126.48
2018-10-04T21:02:34.714Z,100121.83
2018-10-04T21:05:08.713Z,100119.23
2018-10-04T21:07:43.627Z,100118.13
2018-10-04T21:10:15.984Z,100119.06
2018-10-04T21:12:46.938Z,100110.09
2018-10-04T21:15:21.005Z,100108.12
2018-10-04T21:17:53.693Z,100106.48
2018-10-04T21:20:27.736Z,100102.97
2018-10-04T21:23:02.186Z,100103.72
2018-10-04T21:25:35.229Z,100098.39
2018-10-04T21:28:08.618Z,100093.81
2018-10-04T21:30:41.813Z,100097.98
2018-10-04T21:33:13.032Z,100093.90
2018-10-04T21:35:46.294Z,100093.43
2018-10-04T21:38:20.315Z,100086.58
2018-10-04T21:40:53.906Z,100090.50
2018-10-04T21:43:33.532Z,100081.16
2018-10-04T21:46:08.939Z,100087.33
2018-10-04T21:48:41.801Z,100081.98
2018-10-04T21:51:15.472Z,100084.88
2018-10-04T21:53:48.112Z,100083.82
2018-10-04T21:56:20.970Z,100087.50
2018-10-04T21:58:52.205Z,100084.61
2018-10-04T22:01:24.970Z,100081.98
2018-10-04T22:03:57.363Z,100080.38
2018-10-04T22:06:31.424Z,100080.19
2018-10-04T22:09:02.165Z,100076.88
2018-10-04T22:11:33.730Z,100078.39
2018-10-04T22:14:03.575Z,100080.83
2018-10-04T22:16:34.858Z,100068.48
2018-10-04T22:19:04.736Z,100069.35
2018-10-04T22:21:35.841Z,100060.70
2018-10-04T22:24:04.413Z,100067.27
2018-10-04T22:26:35.409Z,100061.88
2018-10-04T22:29:07.222Z,100067.23
2018-10-04T22:31:35.864Z,100062.44
2018-10-04T22:34:04.416Z,100058.80
2018-10-04T22:36:33.020Z,100063.63
2018-10-04T22:39:01.556Z,100065.16
2018-10-04T22:41:30.140Z,100062.26
2018-10-04T22:43:58.921Z,100065.12
2018-10-04T22:46:27.497Z,100057.38
2018-10-04T22:48:56.049Z,100057.78
2018-10-04T22:51:24.676Z,100057.06
2018-10-04T22:53:53.496Z,100049.36
2018-10-04T22:56:22.060Z,100047.39
2018-10-04T22:58:50.624Z,100041.86
2018-10-04T23:01:19.213Z,100037.13
2018-10-04T23:03:47.760Z,100039.16
2018-10-04T23:06:16.360Z,100038.28
2018-10-04T23:08:45.138Z,100048.08
2018-10-04T23:11:13.716Z,100045.69
2018-10-04T23:13:42.276Z,100040.00
2018-10-04T23:16:16.157Z,100041.14
2018-10-04T23:18:52.512Z,100032.84
2018-10-04T23:21:27.176Z,100036.48
2018-10-04T23:24:01.626Z,100032.39
2018-10-04T23:26:34.895Z,100033.37
2018-10-04T23:29:08.127Z,100032.69
2018-10-04T23:31:44.007Z,100035.11
2018-10-04T23:34:18.945Z,100036.48
2018-10-04T23:36:54.426Z,100030.31
2018-10-04T23:39:29.553Z,100029.14
2018-10-04T23:42:04.529Z,100025.47
2018-10-04T23:44:37.300Z,100021.65
2018-10-04T23:47:06.057Z,100024.73
2018-10-04T23:49:34.645Z,100024.25
2018-10-04T23:52:03.317Z,100021.38
2018-10-04T23:54:31.913Z,100024.94
2018-10-04T23:57:00.480Z,100023.80
2018-10-04T23:59:29.038Z,100024.05
